sensor_id;sensor_type;location;lat;lon;timestamp;pressure;altitude;pressure_sealevel;temperature;humidity
58757;BME280;44527;47.460;19.016;2023-04-26T00:01:13;99595.13;;;10.67;67.56
58757;BME280;44527;47.460;19.016;2023-04-26T00:04:15;99605.37;;;10.70;66.80
58757;BME280;44527;47.460;19.016;2023-04-26T00:07:18;99597.41;;;10.72;67.48
58757;BME280;44527;47.460;19.016;2023-04-26T00:10:21;99594.06;;;10.70;68.32
58757;BME280;44527;47.460;19.016;2023-04-26T00:13:23;99596.44;;;10.62;68.68
58757;BME280;44527;47.460;19.016;2023-04-26T00:16:25;99604.78;;;10.67;68.90
58757;BME280;44527;47.460;19.016;2023-04-26T00:19:29;99600.25;;;10.69;69.41
58757;BME280;44527;47.460;19.016;2023-04-26T00:22:33;99598.00;;;10.53;70.26
58757;BME280;44527;47.460;19.016;2023-04-26T00:25:36;99602.16;;;10.55;70.24
58757;BME280;44527;47.460;19.016;2023-04-26T00:28:39;99602.16;;;10.55;70.20
58757;BME280;44527;47.460;19.016;2023-04-26T00:31:44;99617.53;;;10.49;70.81
58757;BME280;44527;47.460;19.016;2023-04-26T00:34:46;99612.91;;;10.64;70.47
58757;BME280;44527;47.460;19.016;2023-04-26T00:37:51;99611.94;;;10.65;69.96
58757;BME280;44527;47.460;19.016;2023-04-26T00:40:53;99618.84;;;10.54;70.93
58757;BME280;44527;47.460;19.016;2023-04-26T00:43:55;99630.41;;;10.52;70.51
58757;BME280;44527;47.460;19.016;2023-04-26T00:46:58;99611.59;;;10.47;70.81
58757;BME280;44527;47.460;19.016;2023-04-26T00:50:00;99630.88;;;10.34;71.03
58757;BME280;44527;47.460;19.016;2023-04-26T00:53:03;99619.37;;;10.24;71.32
58757;BME280;44527;47.460;19.016;2023-04-26T00:56:05;99617.69;;;10.12;71.82
58757;BME280;44527;47.460;19.016;2023-04-26T00:59:08;99625.94;;;10.07;72.14
58757;BME280;44527;47.460;19.016;2023-04-26T01:02:10;99621.34;;;9.87;72.79
58757;BME280;44527;47.460;19.016;2023-04-26T01:05:12;99628.59;;;9.83;73.18
58757;BME280;44527;47.460;19.016;2023-04-26T01:08:18;99632.03;;;9.84;72.76
58757;BME280;44527;47.460;19.016;2023-04-26T01:11:22;99626.16;;;9.69;73.24
58757;BME280;44527;47.460;19.016;2023-04-26T01:14:25;99632.91;;;9.60;73.67
58757;BME280;44527;47.460;19.016;2023-04-26T01:17:28;99633.47;;;9.53;73.42
58757;BME280;44527;47.460;19.016;2023-04-26T01:20:30;99634.84;;;9.46;73.85
58757;BME280;44527;47.460;19.016;2023-04-26T01:23:35;99641.72;;;9.35;74.23
58757;BME280;44527;47.460;19.016;2023-04-26T01:26:37;99646.94;;;9.35;74.45
58757;BME280;44527;47.460;19.016;2023-04-26T01:29:49;99654.72;;;9.37;74.58
58757;BME280;44527;47.460;19.016;2023-04-26T01:32:51;99649.56;;;9.35;74.51
58757;BME280;44527;47.460;19.016;2023-04-26T01:35:54;99657.34;;;9.24;74.89
58757;BME280;44527;47.460;19.016;2023-04-26T01:38:56;99660.91;;;9.23;75.04
58757;BME280;44527;47.460;19.016;2023-04-26T01:41:58;99659.75;;;9.27;74.53
58757;BME280;44527;47.460;19.016;2023-04-26T01:45:01;99662.53;;;9.13;75.27
58757;BME280;44527;47.460;19.016;2023-04-26T01:48:18;99676.09;;;9.18;75.20
58757;BME280;44527;47.460;19.016;2023-04-26T01:51:20;99682.94;;;9.08;75.39
58757;BME280;44527;47.460;19.016;2023-04-26T01:54:22;99679.59;;;9.06;75.09
58757;BME280;44527;47.460;19.016;2023-04-26T01:57:26;99684.09;;;9.16;75.03
58757;BME280;44527;47.460;19.016;2023-04-26T02:00:28;99684.19;;;9.15;74.79
58757;BME280;44527;47.460;19.016;2023-04-26T02:03:32;99687.13;;;9.10;74.86
58757;BME280;44527;47.460;19.016;2023-04-26T02:06:34;99679.59;;;9.06;75.14
58757;BME280;44527;47.460;19.016;2023-04-26T02:09:37;99688.41;;;8.92;76.15
58757;BME280;44527;47.460;19.016;2023-04-26T02:12:39;99686.84;;;8.89;75.50
58757;BME280;44527;47.460;19.016;2023-04-26T02:15:45;99691.13;;;8.90;74.98
58757;BME280;44527;47.460;19.016;2023-04-26T02:18:47;99689.06;;;8.83;74.54
58757;BME280;44527;47.460;19.016;2023-04-26T02:21:55;99688.72;;;8.87;74.76
58757;BME280;44527;47.460;19.016;2023-04-26T02:24:58;99704.63;;;8.84;74.59
58757;BME280;44527;47.460;19.016;2023-04-26T02:28:01;99699.50;;;8.95;75.15
58757;BME280;44527;47.460;19.016;2023-04-26T02:31:04;99705.72;;;8.82;75.64
58757;BME280;44527;47.460;19.016;2023-04-26T02:34:08;99700.47;;;8.94;74.89
58757;BME280;44527;47.460;19.016;2023-04-26T02:37:10;99700.34;;;8.83;74.35
58757;BME280;44527;47.460;19.016;2023-04-26T02:40:16;99713.03;;;8.77;75.17
58757;BME280;44527;47.460;19.016;2023-04-26T02:43:18;99704.03;;;8.81;75.06
58757;BME280;44527;47.460;19.016;2023-04-26T02:46:21;99702.22;;;8.81;73.98
58757;BME280;44527;47.460;19.016;2023-04-26T02:49:23;99705.72;;;8.82;73.86
58757;BME280;44527;47.460;19.016;2023-04-26T02:52:28;99707.03;;;8.87;73.14
58757;BME280;44527;47.460;19.016;2023-04-26T02:55:30;99708.53;;;8.91;73.23
58757;BME280;44527;47.460;19.016;2023-04-26T02:58:33;99715.84;;;8.86;73.40
58757;BME280;44527;47.460;19.016;2023-04-26T03:01:35;99713.97;;;8.76;72.71
58757;BME280;44527;47.460;19.016;2023-04-26T03:04:37;99716.56;;;8.63;73.77
58757;BME280;44527;47.460;19.016;2023-04-26T03:07:40;99719.50;;;8.71;73.11
58757;BME280;44527;47.460;19.016;2023-04-26T03:10:43;99727.78;;;8.65;73.08
58757;BME280;44527;47.460;19.016;2023-04-26T03:13:46;99728.94;;;8.61;73.02
58757;BME280;44527;47.460;19.016;2023-04-26T03:16:49;99737.22;;;8.67;72.41
58757;BME280;44527;47.460;19.016;2023-04-26T03:19:51;99747.97;;;8.63;72.72
58757;BME280;44527;47.460;19.016;2023-04-26T03:22:53;99741.91;;;8.62;72.74
58757;BME280;44527;47.460;19.016;2023-04-26T03:25:58;99746.09;;;8.65;73.28
58757;BME280;44527;47.460;19.016;2023-04-26T03:29:00;99749.66;;;8.77;72.59
58757;BME280;44527;47.460;19.016;2023-04-26T03:32:03;99746.94;;;8.65;73.22
58757;BME280;44527;47.460;19.016;2023-04-26T03:35:06;99751.88;;;8.70;71.88
58757;BME280;44527;47.460;19.016;2023-04-26T03:38:08;99756.75;;;8.62;71.62
58757;BME280;44527;47.460;19.016;2023-04-26T03:41:11;99757.37;;;8.52;73.03
58757;BME280;44527;47.460;19.016;2023-04-26T03:44:13;99753.84;;;8.66;71.43
58757;BME280;44527;47.460;19.016;2023-04-26T03:47:18;99763.38;;;8.67;71.27
58757;BME280;44527;47.460;19.016;2023-04-26T03:50:21;99760.41;;;8.59;71.47
58757;BME280;44527;47.460;19.016;2023-04-26T03:53:24;99760.13;;;8.64;70.78
58757;BME280;44527;47.460;19.016;2023-04-26T03:56:26;99761.03;;;8.63;70.49
58757;BME280;44527;47.460;19.016;2023-04-26T03:59:29;99766.72;;;8.69;70.59
58757;BME280;44527;47.460;19.016;2023-04-26T04:02:34;99780.31;;;9.26;74.40
58757;BME280;44527;47.460;19.016;2023-04-26T04:05:40;99786.69;;;9.84;79.32
58757;BME280;44527;47.460;19.016;2023-04-26T04:08:43;99787.03;;;10.27;86.79
58757;BME280;44527;47.460;19.016;2023-04-26T04:11:48;99788.81;;;10.51;73.48
58757;BME280;44527;47.460;19.016;2023-04-26T04:14:52;99787.63;;;11.13;71.65
58757;BME280;44527;47.460;19.016;2023-04-26T04:17:56;99805.75;;;10.93;63.26
58757;BME280;44527;47.460;19.016;2023-04-26T04:20:59;99808.13;;;10.26;65.24
58757;BME280;44527;47.460;19.016;2023-04-26T04:24:02;99798.84;;;10.09;67.88
58757;BME280;44527;47.460;19.016;2023-04-26T04:27:09;99802.94;;;10.37;77.33
58757;BME280;44527;47.460;19.016;2023-04-26T04:30:13;99805.56;;;11.30;67.74
58757;BME280;44527;47.460;19.016;2023-04-26T04:33:15;99815.56;;;11.02;66.72
58757;BME280;44527;47.460;19.016;2023-04-26T04:36:19;99829.84;;;10.98;71.73
58757;BME280;44527;47.460;19.016;2023-04-26T04:39:21;99836.94;;;10.63;63.23
58757;BME280;44527;47.460;19.016;2023-04-26T04:42:27;99841.56;;;10.59;81.35
58757;BME280;44527;47.460;19.016;2023-04-26T04:45:32;99849.59;;;10.69;67.23
58757;BME280;44527;47.460;19.016;2023-04-26T04:48:41;99852.78;;;10.37;64.55
58757;BME280;44527;47.460;19.016;2023-04-26T04:51:44;99853.56;;;10.26;64.87
58757;BME280;44527;47.460;19.016;2023-04-26T04:54:48;99853.31;;;10.05;65.41
58757;BME280;44527;47.460;19.016;2023-04-26T04:57:52;99862.22;;;10.40;65.65
58757;BME280;44527;47.460;19.016;2023-04-26T05:00:55;99864.06;;;11.66;62.41
58757;BME280;44527;47.460;19.016;2023-04-26T05:03:59;99865.09;;;14.37;52.71
58757;BME280;44527;47.460;19.016;2023-04-26T05:07:02;99876.69;;;16.44;47.11
58757;BME280;44527;47.460;19.016;2023-04-26T05:10:04;99879.13;;;18.03;42.52
58757;BME280;44527;47.460;19.016;2023-04-26T05:13:07;99886.00;;;19.61;39.08
58757;BME280;44527;47.460;19.016;2023-04-26T05:16:11;99887.31;;;19.82;37.74
58757;BME280;44527;47.460;19.016;2023-04-26T05:19:14;99888.72;;;21.09;35.59
58757;BME280;44527;47.460;19.016;2023-04-26T05:22:16;99897.88;;;20.69;34.23
58757;BME280;44527;47.460;19.016;2023-04-26T05:25:24;99903.66;;;21.18;33.50
58757;BME280;44527;47.460;19.016;2023-04-26T05:28:28;99899.31;;;21.55;32.26
58757;BME280;44527;47.460;19.016;2023-04-26T05:31:30;99908.66;;;22.61;30.86
58757;BME280;44527;47.460;19.016;2023-04-26T05:34:33;99906.53;;;22.93;29.56
58757;BME280;44527;47.460;19.016;2023-04-26T05:37:35;99912.88;;;22.70;29.92
58757;BME280;44527;47.460;19.016;2023-04-26T05:40:38;99912.78;;;23.28;28.76
58757;BME280;44527;47.460;19.016;2023-04-26T05:43:41;99907.66;;;23.27;28.00
58757;BME280;44527;47.460;19.016;2023-04-26T05:46:43;99915.53;;;23.35;27.65
58757;BME280;44527;47.460;19.016;2023-04-26T05:49:46;99918.38;;;23.90;27.19
58757;BME280;44527;47.460;19.016;2023-04-26T05:52:49;99911.22;;;24.03;30.82
58757;BME280;44527;47.460;19.016;2023-04-26T05:56:01;99920.09;;;24.52;25.75
58757;BME280;44527;47.460;19.016;2023-04-26T05:59:03;99929.47;;;24.83;24.42
58757;BME280;44527;47.460;19.016;2023-04-26T06:02:07;99929.97;;;26.11;24.09
58757;BME280;44527;47.460;19.016;2023-04-26T06:05:10;99936.06;;;25.00;24.37
58757;BME280;44527;47.460;19.016;2023-04-26T06:08:15;99924.28;;;24.74;24.49
58757;BME280;44527;47.460;19.016;2023-04-26T06:11:17;99926.47;;;24.51;24.38
58757;BME280;44527;47.460;19.016;2023-04-26T06:14:20;99934.69;;;23.95;24.64
58757;BME280;44527;47.460;19.016;2023-04-26T06:17:33;99950.16;;;25.15;23.71
58757;BME280;44527;47.460;19.016;2023-04-26T06:20:35;99944.16;;;25.40;23.34
58757;BME280;44527;47.460;19.016;2023-04-26T06:23:40;99950.97;;;25.49;24.96
58757;BME280;44527;47.460;19.016;2023-04-26T06:26:42;99954.44;;;25.96;22.77
58757;BME280;44527;47.460;19.016;2023-04-26T06:29:45;99952.16;;;26.00;22.10
58757;BME280;44527;47.460;19.016;2023-04-26T06:32:47;99950.72;;;24.91;22.26
58757;BME280;44527;47.460;19.016;2023-04-26T06:35:49;99944.28;;;24.79;23.08
58757;BME280;44527;47.460;19.016;2023-04-26T06:38:53;99948.66;;;25.86;25.38
58757;BME280;44527;47.460;19.016;2023-04-26T06:41:55;99944.97;;;25.54;22.34
58757;BME280;44527;47.460;19.016;2023-04-26T06:44:58;99953.06;;;25.47;22.92
58757;BME280;44527;47.460;19.016;2023-04-26T06:48:01;99958.19;;;25.15;26.97
58757;BME280;44527;47.460;19.016;2023-04-26T06:51:06;99966.06;;;25.24;24.62
58757;BME280;44527;47.460;19.016;2023-04-26T06:54:10;99962.91;;;24.87;22.35
58757;BME280;44527;47.460;19.016;2023-04-26T06:57:13;99950.25;;;24.13;23.46
58757;BME280;44527;47.460;19.016;2023-04-26T07:00:15;99952.16;;;24.25;28.79
58757;BME280;44527;47.460;19.016;2023-04-26T07:03:18;99960.47;;;25.45;25.20
58757;BME280;44527;47.460;19.016;2023-04-26T07:06:21;99950.66;;;24.10;25.01
58757;BME280;44527;47.460;19.016;2023-04-26T07:09:23;99956.97;;;23.39;24.13
58757;BME280;44527;47.460;19.016;2023-04-26T07:12:26;99955.50;;;23.93;27.85
58757;BME280;44527;47.460;19.016;2023-04-26T07:15:28;99953.63;;;24.89;26.05
58757;BME280;44527;47.460;19.016;2023-04-26T07:18:30;99962.09;;;24.99;22.76
58757;BME280;44527;47.460;19.016;2023-04-26T07:21:32;99954.84;;;24.73;23.14
58757;BME280;44527;47.460;19.016;2023-04-26T07:24:35;99974.94;;;25.37;26.72
58757;BME280;44527;47.460;19.016;2023-04-26T07:27:37;99972.75;;;24.66;24.84
58757;BME280;44527;47.460;19.016;2023-04-26T07:30:40;99969.38;;;24.03;23.94
58757;BME280;44527;47.460;19.016;2023-04-26T07:33:42;99989.16;;;24.02;22.77
58757;BME280;44527;47.460;19.016;2023-04-26T07:36:46;100001.03;;;23.65;23.21
58757;BME280;44527;47.460;19.016;2023-04-26T07:39:48;99984.25;;;22.34;24.01
58757;BME280;44527;47.460;19.016;2023-04-26T07:42:52;99989.53;;;22.27;23.57
58757;BME280;44527;47.460;19.016;2023-04-26T07:45:54;99991.66;;;22.17;24.37
58757;BME280;44527;47.460;19.016;2023-04-26T07:48:57;99996.28;;;21.09;26.10
58757;BME280;44527;47.460;19.016;2023-04-26T07:51:59;99979.16;;;20.02;25.92
58757;BME280;44527;47.460;19.016;2023-04-26T07:55:03;99985.22;;;19.22;26.83
58757;BME280;44527;47.460;19.016;2023-04-26T07:58:07;100002.91;;;18.73;26.76
58757;BME280;44527;47.460;19.016;2023-04-26T08:01:17;99996.72;;;18.72;27.93
58757;BME280;44527;47.460;19.016;2023-04-26T08:04:30;100007.28;;;19.06;29.55
58757;BME280;44527;47.460;19.016;2023-04-26T08:07:36;100017.06;;;18.05;29.76
58757;BME280;44527;47.460;19.016;2023-04-26T08:10:43;100022.53;;;17.41;30.04
58757;BME280;44527;47.460;19.016;2023-04-26T08:13:51;100016.78;;;16.37;31.34
58757;BME280;44527;47.460;19.016;2023-04-26T08:16:54;100012.94;;;15.84;32.90
58757;BME280;44527;47.460;19.016;2023-04-26T08:19:57;100007.00;;;15.05;34.72
58757;BME280;44527;47.460;19.016;2023-04-26T08:22:59;100016.34;;;15.38;34.81
58757;BME280;44527;47.460;19.016;2023-04-26T08:26:02;100014.94;;;15.24;34.13
58757;BME280;44527;47.460;19.016;2023-04-26T08:29:05;100016.00;;;14.73;34.74
58757;BME280;44527;47.460;19.016;2023-04-26T08:32:24;100024.19;;;14.70;34.88
58757;BME280;44527;47.460;19.016;2023-04-26T08:35:27;100020.75;;;14.99;33.50
58757;BME280;44527;47.460;19.016;2023-04-26T08:39:11;100018.91;;;14.70;33.38
58757;BME280;44527;47.460;19.016;2023-04-26T08:42:16;100015.22;;;15.02;34.14
58757;BME280;44527;47.460;19.016;2023-04-26T08:45:19;100024.81;;;15.71;34.80
58757;BME280;44527;47.460;19.016;2023-04-26T08:48:22;100029.97;;;15.04;31.69
58757;BME280;44527;47.460;19.016;2023-04-26T08:51:25;100029.41;;;15.01;32.79
58757;BME280;44527;47.460;19.016;2023-04-26T08:54:28;100035.50;;;14.82;35.71
58757;BME280;44527;47.460;19.016;2023-04-26T08:57:32;100036.31;;;14.73;33.39
58757;BME280;44527;47.460;19.016;2023-04-26T09:00:35;100046.81;;;15.13;36.05
58757;BME280;44527;47.460;19.016;2023-04-26T09:03:37;100029.81;;;15.06;33.76
58757;BME280;44527;47.460;19.016;2023-04-26T09:06:41;100025.50;;;15.24;31.90
58757;BME280;44527;47.460;19.016;2023-04-26T09:09:46;100039.59;;;15.34;31.76
58757;BME280;44527;47.460;19.016;2023-04-26T09:12:54;100033.87;;;15.20;32.83
58757;BME280;44527;47.460;19.016;2023-04-26T09:15:57;100022.47;;;15.19;32.83
58757;BME280;44527;47.460;19.016;2023-04-26T09:19:00;100029.12;;;15.13;33.43
58757;BME280;44527;47.460;19.016;2023-04-26T09:22:03;100025.66;;;15.32;31.95
58757;BME280;44527;47.460;19.016;2023-04-26T09:25:05;100032.88;;;15.30;33.76
58757;BME280;44527;47.460;19.016;2023-04-26T09:28:21;100028.84;;;15.07;33.14
58757;BME280;44527;47.460;19.016;2023-04-26T09:31:37;100014.66;;;14.88;32.80
58757;BME280;44527;47.460;19.016;2023-04-26T09:34:43;100014.66;;;15.17;33.62
58757;BME280;44527;47.460;19.016;2023-04-26T09:37:57;100031.47;;;15.46;32.39
58757;BME280;44527;47.460;19.016;2023-04-26T09:41:08;100030.31;;;15.97;31.75
58757;BME280;44527;47.460;19.016;2023-04-26T09:44:23;100038.44;;;15.85;30.72
58757;BME280;44527;47.460;19.016;2023-04-26T09:47:29;100037.22;;;15.31;35.00
58757;BME280;44527;47.460;19.016;2023-04-26T09:50:33;100031.22;;;15.20;33.36
58757;BME280;44527;47.460;19.016;2023-04-26T09:53:37;100043.59;;;15.19;32.55
58757;BME280;44527;47.460;19.016;2023-04-26T09:56:40;100021.47;;;15.01;32.97
58757;BME280;44527;47.460;19.016;2023-04-26T09:59:44;100019.66;;;15.30;33.33
58757;BME280;44527;47.460;19.016;2023-04-26T10:02:47;100019.41;;;15.43;33.55
58757;BME280;44527;47.460;19.016;2023-04-26T10:09:19;100026.56;;;14.73;32.10
58757;BME280;44527;47.460;19.016;2023-04-26T10:12:25;100027.69;;;14.90;31.35
58757;BME280;44527;47.460;19.016;2023-04-26T10:15:45;100024.56;;;15.15;31.10
58757;BME280;44527;47.460;19.016;2023-04-26T10:18:51;100018.81;;;15.30;30.76
58757;BME280;44527;47.460;19.016;2023-04-26T10:22:03;100012.34;;;16.00;29.77
58757;BME280;44527;47.460;19.016;2023-04-26T10:25:51;100025.09;;;15.77;30.56
58757;BME280;44527;47.460;19.016;2023-04-26T10:36:16;100026.78;;;15.69;30.09
58757;BME280;44527;47.460;19.016;2023-04-26T10:57:47;100030.16;;;16.08;30.24
58757;BME280;44527;47.460;19.016;2023-04-26T11:01:17;100034.16;;;16.49;30.75
58757;BME280;44527;47.460;19.016;2023-04-26T11:04:22;100050.81;;;15.95;32.43
58757;BME280;44527;47.460;19.016;2023-04-26T11:07:43;100027.59;;;15.30;31.40
58757;BME280;44527;47.460;19.016;2023-04-26T11:10:52;100034.63;;;14.81;32.54
58757;BME280;44527;47.460;19.016;2023-04-26T11:14:49;100031.56;;;14.66;32.36
58757;BME280;44527;47.460;19.016;2023-04-26T11:17:51;100039.44;;;15.16;30.75
58757;BME280;44527;47.460;19.016;2023-04-26T11:20:55;100029.12;;;15.33;31.91
58757;BME280;44527;47.460;19.016;2023-04-26T11:23:58;100040.25;;;15.56;30.25
58757;BME280;44527;47.460;19.016;2023-04-26T11:27:08;100016.31;;;15.09;30.35
58757;BME280;44527;47.460;19.016;2023-04-26T11:30:17;100032.75;;;15.32;32.03
58757;BME280;44527;47.460;19.016;2023-04-26T11:33:31;100033.56;;;15.52;32.64
58757;BME280;44527;47.460;19.016;2023-04-26T13:03:54;100061.75;;;14.43;32.46
58757;BME280;44527;47.460;19.016;2023-04-26T13:06:58;100068.13;;;14.71;32.53
58757;BME280;44527;47.460;19.016;2023-04-26T13:10:00;100065.09;;;14.76;32.01
58757;BME280;44527;47.460;19.016;2023-04-26T13:13:03;100067.41;;;14.69;31.86
58757;BME280;44527;47.460;19.016;2023-04-26T13:16:05;100065.13;;;14.85;31.94
58757;BME280;44527;47.460;19.016;2023-04-26T13:19:08;100054.56;;;14.85;32.06
58757;BME280;44527;47.460;19.016;2023-04-26T13:22:11;100060.66;;;14.86;33.22
58757;BME280;44527;47.460;19.016;2023-04-26T13:25:13;100066.84;;;14.56;32.90
58757;BME280;44527;47.460;19.016;2023-04-26T13:28:16;100063.38;;;14.65;32.27
58757;BME280;44527;47.460;19.016;2023-04-26T13:31:18;100082.59;;;14.15;31.87
58757;BME280;44527;47.460;19.016;2023-04-26T13:34:21;100078.31;;;14.14;32.53
58757;BME280;44527;47.460;19.016;2023-04-26T13:37:25;100086.59;;;13.89;31.32
58757;BME280;44527;47.460;19.016;2023-04-26T13:40:27;100088.41;;;14.09;32.35
58757;BME280;44527;47.460;19.016;2023-04-26T13:43:30;100090.97;;;14.20;31.66
58757;BME280;44527;47.460;19.016;2023-04-26T13:46:32;100089.03;;;14.22;31.54
58757;BME280;44527;47.460;19.016;2023-04-26T13:49:34;100081.59;;;14.37;31.61
58757;BME280;44527;47.460;19.016;2023-04-26T13:52:36;100078.25;;;15.06;30.78
58757;BME280;44527;47.460;19.016;2023-04-26T13:55:39;100077.25;;;15.07;30.10
58757;BME280;44527;47.460;19.016;2023-04-26T13:58:41;100090.50;;;14.67;30.56
58757;BME280;44527;47.460;19.016;2023-04-26T14:01:44;100091.03;;;14.30;31.62
58757;BME280;44527;47.460;19.016;2023-04-26T14:04:47;100104.19;;;13.99;32.53
58757;BME280;44527;47.460;19.016;2023-04-26T14:07:50;100096.38;;;13.77;32.64
58757;BME280;44527;47.460;19.016;2023-04-26T14:10:56;100097.34;;;13.97;33.72
58757;BME280;44527;47.460;19.016;2023-04-26T14:13:58;100093.63;;;13.99;33.38
58757;BME280;44527;47.460;19.016;2023-04-26T14:17:00;100095.53;;;13.97;33.44
58757;BME280;44527;47.460;19.016;2023-04-26T14:20:02;100104.44;;;13.96;32.98
58757;BME280;44527;47.460;19.016;2023-04-26T14:23:05;100105.00;;;14.00;32.02
58757;BME280;44527;47.460;19.016;2023-04-26T14:26:07;100097.63;;;13.62;32.13
58757;BME280;44527;47.460;19.016;2023-04-26T14:29:09;100097.06;;;13.58;33.81
58757;BME280;44527;47.460;19.016;2023-04-26T14:32:11;100098.91;;;13.78;34.12
58757;BME280;44527;47.460;19.016;2023-04-26T14:35:14;100089.91;;;14.02;33.70
58757;BME280;44527;47.460;19.016;2023-04-26T14:38:16;100096.03;;;14.33;32.10
58757;BME280;44527;47.460;19.016;2023-04-26T14:41:19;100083.25;;;14.59;31.68
58757;BME280;44527;47.460;19.016;2023-04-26T14:44:22;100104.66;;;14.66;31.53
58757;BME280;44527;47.460;19.016;2023-04-26T14:47:25;100094.59;;;14.90;31.18
58757;BME280;44527;47.460;19.016;2023-04-26T14:50:27;100092.56;;;15.04;32.03
58757;BME280;44527;47.460;19.016;2023-04-26T14:53:29;100089.75;;;15.05;32.11
58757;BME280;44527;47.460;19.016;2023-04-26T14:56:32;100095.56;;;14.89;32.02
58757;BME280;44527;47.460;19.016;2023-04-26T14:59:35;100103.50;;;14.28;33.34
58757;BME280;44527;47.460;19.016;2023-04-26T15:02:37;100114.59;;;14.01;33.39
58757;BME280;44527;47.460;19.016;2023-04-26T15:05:40;100103.84;;;13.72;33.82
58757;BME280;44527;47.460;19.016;2023-04-26T15:08:42;100122.03;;;13.54;32.60
58757;BME280;44527;47.460;19.016;2023-04-26T15:11:44;100128.59;;;13.60;32.67
58757;BME280;44527;47.460;19.016;2023-04-26T15:14:46;100126.50;;;13.31;32.94
58757;BME280;44527;47.460;19.016;2023-04-26T15:17:49;100123.59;;;13.45;33.83
58757;BME280;44527;47.460;19.016;2023-04-26T15:20:51;100121.94;;;13.22;33.70
58757;BME280;44527;47.460;19.016;2023-04-26T15:23:54;100128.59;;;13.05;33.95
58757;BME280;44527;47.460;19.016;2023-04-26T15:26:57;100120.88;;;13.24;34.74
58757;BME280;44527;47.460;19.016;2023-04-26T15:29:59;100119.56;;;13.19;35.04
58757;BME280;44527;47.460;19.016;2023-04-26T15:33:01;100125.06;;;13.38;35.56
58757;BME280;44527;47.460;19.016;2023-04-26T15:36:04;100115.97;;;13.31;35.38
58757;BME280;44527;47.460;19.016;2023-04-26T15:39:06;100119.91;;;13.37;35.06
58757;BME280;44527;47.460;19.016;2023-04-26T15:42:09;100118.87;;;13.60;34.56
58757;BME280;44527;47.460;19.016;2023-04-26T15:45:12;100120.06;;;13.88;33.70
58757;BME280;44527;47.460;19.016;2023-04-26T15:48:14;100120.53;;;14.14;31.43
58757;BME280;44527;47.460;19.016;2023-04-26T15:51:16;100110.59;;;14.07;30.37
58757;BME280;44527;47.460;19.016;2023-04-26T15:54:19;100113.44;;;13.94;30.24
58757;BME280;44527;47.460;19.016;2023-04-26T15:57:23;100118.37;;;13.66;32.18
58757;BME280;44527;47.460;19.016;2023-04-26T16:00:25;100129.09;;;13.53;33.14
58757;BME280;44527;47.460;19.016;2023-04-26T16:03:29;100131.81;;;13.08;32.99
58757;BME280;44527;47.460;19.016;2023-04-26T16:06:31;100134.47;;;12.86;33.26
58757;BME280;44527;47.460;19.016;2023-04-26T16:09:34;100140.31;;;13.01;32.84
58757;BME280;44527;47.460;19.016;2023-04-26T16:12:36;100134.94;;;12.91;32.25
58757;BME280;44527;47.460;19.016;2023-04-26T16:15:40;100141.41;;;12.87;32.04
58757;BME280;44527;47.460;19.016;2023-04-26T16:18:42;100136.72;;;12.79;32.50
58757;BME280;44527;47.460;19.016;2023-04-26T16:21:45;100146.56;;;12.77;31.78
58757;BME280;44527;47.460;19.016;2023-04-26T16:24:47;100143.22;;;12.75;32.01
58757;BME280;44527;47.460;19.016;2023-04-26T16:27:50;100143.81;;;12.79;31.69
58757;BME280;44527;47.460;19.016;2023-04-26T16:30:52;100150.75;;;12.69;33.37
58757;BME280;44527;47.460;19.016;2023-04-26T16:33:54;100145.84;;;12.64;32.10
58757;BME280;44527;47.460;19.016;2023-04-26T16:36:57;100151.12;;;12.53;31.93
58757;BME280;44527;47.460;19.016;2023-04-26T16:40:03;100154.28;;;12.23;32.21
58757;BME280;44527;47.460;19.016;2023-04-26T16:43:06;100155.50;;;12.18;32.84
58757;BME280;44527;47.460;19.016;2023-04-26T16:46:12;100160.75;;;12.18;33.01
58757;BME280;44527;47.460;19.016;2023-04-26T16:49:14;100161.44;;;12.09;33.62
58757;BME280;44527;47.460;19.016;2023-04-26T16:52:17;100165.66;;;12.23;34.11
58757;BME280;44527;47.460;19.016;2023-04-26T16:55:19;100166.06;;;12.06;34.63
58757;BME280;44527;47.460;19.016;2023-04-26T16:58:21;100171.69;;;12.01;35.42
58757;BME280;44527;47.460;19.016;2023-04-26T17:01:23;100167.50;;;11.99;35.24
58757;BME280;44527;47.460;19.016;2023-04-26T17:04:26;100181.16;;;11.80;34.38
58757;BME280;44527;47.460;19.016;2023-04-26T17:07:29;100174.53;;;11.74;34.77
58757;BME280;44527;47.460;19.016;2023-04-26T17:10:32;100182.34;;;11.76;34.72
58757;BME280;44527;47.460;19.016;2023-04-26T17:13:34;100180.09;;;11.82;34.55
58757;BME280;44527;47.460;19.016;2023-04-26T17:16:37;100190.28;;;11.87;35.13
58757;BME280;44527;47.460;19.016;2023-04-26T17:19:39;100188.63;;;11.86;34.99
58757;BME280;44527;47.460;19.016;2023-04-26T17:22:41;100186.00;;;11.86;36.00
58757;BME280;44527;47.460;19.016;2023-04-26T17:25:43;100184.00;;;11.77;36.63
58757;BME280;44527;47.460;19.016;2023-04-26T17:28:46;100191.97;;;11.75;37.79
58757;BME280;44527;47.460;19.016;2023-04-26T17:31:48;100191.56;;;11.57;36.32
58757;BME280;44527;47.460;19.016;2023-04-26T17:34:50;100190.88;;;11.42;36.86
58757;BME280;44527;47.460;19.016;2023-04-26T17:37:52;100198.25;;;11.37;36.69
58757;BME280;44527;47.460;19.016;2023-04-26T17:40:56;100196.66;;;11.35;37.31
58757;BME280;44527;47.460;19.016;2023-04-26T17:43:58;100207.97;;;11.24;37.14
58757;BME280;44527;47.460;19.016;2023-04-26T17:47:00;100208.19;;;11.21;37.40
58757;BME280;44527;47.460;19.016;2023-04-26T17:50:02;100208.00;;;11.11;37.39
58757;BME280;44527;47.460;19.016;2023-04-26T17:53:04;100221.03;;;11.00;38.64
58757;BME280;44527;47.460;19.016;2023-04-26T17:56:07;100227.53;;;10.94;38.22